createdAt,value
2023-04-16T00:01:56.214Z,4.96
2023-04-16T00:04:23.179Z,5.08
2023-04-16T00:06:49.827Z,5.21
2023-04-16T00:09:16.536Z,5.21
2023-04-16T00:11:43.210Z,5.13
2023-04-16T00:14:09.877Z,5.03
2023-04-16T00:16:36.740Z,5.01
2023-04-16T00:19:03.525Z,5.18
2023-04-16T00:21:31.219Z,5.45
2023-04-16T00:23:58.056Z,5.43
2023-04-16T00:26:24.772Z,5.50
2023-04-16T00:28:53.421Z,5.08
2023-04-16T00:31:27.849Z,4.95
2023-04-16T00:33:54.556Z,5.05
2023-04-16T00:36:21.300Z,4.97
2023-04-16T00:38:48.011Z,5.10
2023-04-16T00:41:14.700Z,4.80
2023-04-16T00:43:41.372Z,4.97
2023-04-16T00:46:08.803Z,4.74
2023-04-16T00:48:37.914Z,4.79
2023-04-16T00:51:08.947Z,4.64
2023-04-16T00:53:35.953Z,4.87
2023-04-16T00:56:04.226Z,5.01
2023-04-16T00:58:31.823Z,4.84
2023-04-16T01:00:58.589Z,4.85
2023-04-16T01:03:37.581Z,4.62
2023-04-16T01:06:04.976Z,4.64
2023-04-16T01:08:32.032Z,4.82
2023-04-16T01:10:58.729Z,4.95
2023-04-16T01:13:25.669Z,5.01
2023-04-16T01:16:01.621Z,5.02
2023-04-16T01:18:28.564Z,5.07
2023-04-16T01:20:55.386Z,4.99
2023-04-16T01:23:22.697Z,5.03
2023-04-16T01:25:49.441Z,5.11
2023-04-16T01:28:17.086Z,5.21
2023-04-16T01:30:43.814Z,5.16
2023-04-16T01:33:15.003Z,5.17
2023-04-16T01:35:50.130Z,5.10
2023-04-16T01:38:17.453Z,4.82
2023-04-16T01:40:44.123Z,4.96
2023-04-16T01:43:10.857Z,4.83
2023-04-16T01:45:37.573Z,4.74
2023-04-16T01:48:04.526Z,4.85
2023-04-16T01:50:31.912Z,4.99
2023-04-16T01:52:58.668Z,5.04
2023-04-16T01:55:25.365Z,5.03
2023-04-16T01:57:52.082Z,4.96
2023-04-16T02:00:18.815Z,5.06
2023-04-16T02:02:46.174Z,5.08
2023-04-16T02:05:13.009Z,4.90
2023-04-16T02:07:39.700Z,4.86
2023-04-16T02:10:07.573Z,4.60
2023-04-16T02:12:34.221Z,4.70
2023-04-16T02:15:01.039Z,4.55
2023-04-16T02:17:27.738Z,4.70
2023-04-16T02:19:54.435Z,4.60
2023-04-16T02:22:21.187Z,4.41
2023-04-16T02:24:47.807Z,4.71
2023-04-16T02:27:14.446Z,4.61
2023-04-16T02:29:41.160Z,4.67
2023-04-16T02:32:08.007Z,4.79
2023-04-16T02:34:35.538Z,4.85
2023-04-16T02:37:02.233Z,4.98
2023-04-16T02:39:28.864Z,5.00
2023-04-16T02:41:56.233Z,5.08
2023-04-16T02:44:23.017Z,4.97
2023-04-16T02:46:49.744Z,5.03
2023-04-16T02:49:16.430Z,5.04
2023-04-16T02:51:43.087Z,5.10
2023-04-16T02:54:09.831Z,5.21
2023-04-16T02:56:36.489Z,5.14
2023-04-16T02:59:03.313Z,5.25
2023-04-16T03:01:30.127Z,5.23
2023-04-16T03:03:56.909Z,4.88
2023-04-16T03:06:23.804Z,4.85
2023-04-16T03:08:50.529Z,4.72
2023-04-16T03:11:17.643Z,4.73
2023-04-16T03:13:44.325Z,4.72
2023-04-16T03:16:11.172Z,4.69
2023-04-16T03:18:37.913Z,4.72
2023-04-16T03:21:05.132Z,4.80
2023-04-16T03:23:32.184Z,4.92
2023-04-16T03:25:58.765Z,4.89
2023-04-16T03:28:26.331Z,4.93
2023-04-16T03:30:53.866Z,4.84
2023-04-16T03:33:21.262Z,4.76
2023-04-16T03:35:55.507Z,4.85
2023-04-16T03:38:22.200Z,4.76
2023-04-16T03:40:48.818Z,4.73
2023-04-16T03:43:15.619Z,4.95
2023-04-16T03:45:46.208Z,4.98
2023-04-16T03:48:13.194Z,5.09
2023-04-16T03:50:39.868Z,5.20
2023-04-16T03:53:06.554Z,5.26
2023-04-16T03:55:35.383Z,5.08
2023-04-16T03:58:03.520Z,4.89
2023-04-16T04:00:30.669Z,4.82
2023-04-16T04:02:57.591Z,4.89
2023-04-16T04:05:24.423Z,5.00
2023-04-16T04:07:51.231Z,5.08
2023-04-16T04:10:17.981Z,5.05
2023-04-16T04:12:44.883Z,4.94
2023-04-16T04:15:12.096Z,4.71
2023-04-16T04:17:38.931Z,4.91
2023-04-16T04:20:06.372Z,5.22
2023-04-16T04:22:33.177Z,5.31
2023-04-16T04:24:59.857Z,5.50
2023-04-16T04:27:27.226Z,5.66
2023-04-16T04:29:53.870Z,5.61
2023-04-16T04:32:20.801Z,5.54
2023-04-16T04:34:47.462Z,5.59
2023-04-16T04:37:14.175Z,5.54
2023-04-16T04:39:41.092Z,5.32
2023-04-16T04:42:08.649Z,5.71
2023-04-16T04:44:35.548Z,5.87
2023-04-16T04:47:02.255Z,6.00
2023-04-16T04:49:28.999Z,5.86
2023-04-16T04:51:55.682Z,5.96
2023-04-16T04:54:22.406Z,6.05
2023-04-16T04:56:49.203Z,6.33
2023-04-16T04:59:15.871Z,6.58
2023-04-16T05:01:42.586Z,6.37
2023-04-16T05:04:09.259Z,6.42
2023-04-16T05:06:36.291Z,6.55
2023-04-16T05:09:03.585Z,6.69
2023-04-16T05:11:30.487Z,7.06
2023-04-16T05:13:57.219Z,7.53
2023-04-16T05:16:23.934Z,7.62
2023-04-16T05:18:50.712Z,7.55
2023-04-16T05:21:17.422Z,7.27
2023-04-16T05:23:44.101Z,7.14
2023-04-16T05:26:10.864Z,7.12
2023-04-16T05:28:37.464Z,6.72
2023-04-16T05:31:04.226Z,6.73
2023-04-16T05:33:30.967Z,7.02
2023-04-16T05:35:57.643Z,7.11
2023-04-16T05:38:24.404Z,7.19
2023-04-16T05:40:51.209Z,7.15
2023-04-16T05:43:18.029Z,7.66
2023-04-16T05:45:45.161Z,8.13
2023-04-16T05:48:12.455Z,8.39
2023-04-16T05:50:39.314Z,8.66
2023-04-16T05:53:07.771Z,8.82
2023-04-16T05:55:36.881Z,9.36
2023-04-16T05:58:06.699Z,9.55
2023-04-16T06:00:33.441Z,9.51
2023-04-16T06:03:00.341Z,9.03
2023-04-16T06:05:27.283Z,8.27
2023-04-16T06:07:54.565Z,8.26
2023-04-16T06:10:21.236Z,8.24
2023-04-16T06:12:47.968Z,8.08
2023-04-16T06:15:14.705Z,8.24
2023-04-16T06:17:41.933Z,8.34
2023-04-16T06:20:09.180Z,8.66
2023-04-16T06:22:35.972Z,8.89
2023-04-16T06:25:02.740Z,8.96
2023-04-16T06:27:29.463Z,8.76
2023-04-16T06:29:57.122Z,8.70
2023-04-16T06:32:23.947Z,8.56
2023-04-16T06:34:50.935Z,8.55
2023-04-16T06:37:17.615Z,8.86
2023-04-16T06:39:44.366Z,9.02
2023-04-16T06:42:11.012Z,8.90
2023-04-16T06:44:37.892Z,8.91
2023-04-16T06:47:04.687Z,9.13
2023-04-16T06:49:31.546Z,9.16
2023-04-16T06:51:58.268Z,8.92
2023-04-16T06:54:24.943Z,9.01
2023-04-16T06:56:51.579Z,9.39
2023-04-16T06:59:18.216Z,9.59
2023-04-16T07:01:45.131Z,9.87
2023-04-16T07:04:12.420Z,9.93
2023-04-16T07:06:39.078Z,9.73
2023-04-16T07:09:05.790Z,9.99
2023-04-16T07:11:32.545Z,10.23
2023-04-16T07:13:59.256Z,11.38
2023-04-16T07:16:26.028Z,14.31
2023-04-16T07:18:52.832Z,16.95
2023-04-16T07:21:19.961Z,16.31
2023-04-16T07:23:46.814Z,15.44
2023-04-16T07:26:13.520Z,14.25
2023-04-16T07:28:40.187Z,13.44
2023-04-16T07:31:07.120Z,12.53
2023-04-16T07:33:33.832Z,12.37
2023-04-16T07:36:00.571Z,11.78
2023-04-16T07:38:27.247Z,11.53
2023-04-16T07:40:55.097Z,11.53
2023-04-16T07:43:21.779Z,11.46
2023-04-16T07:45:48.486Z,11.63
2023-04-16T07:48:15.578Z,11.74
2023-04-16T07:50:43.689Z,11.60
2023-04-16T07:53:10.447Z,11.70
2023-04-16T07:55:37.068Z,11.78
2023-04-16T07:58:03.792Z,11.91
2023-04-16T08:00:30.587Z,12.33
2023-04-16T08:02:57.320Z,12.52
2023-04-16T08:05:24.323Z,12.48
2023-04-16T08:07:51.091Z,12.61
2023-04-16T08:10:17.762Z,12.43
2023-04-16T08:12:44.494Z,12.30
2023-04-16T08:15:11.589Z,12.34
2023-04-16T08:17:38.863Z,12.49
2023-04-16T08:20:06.484Z,12.92
2023-04-16T08:22:33.984Z,13.55
2023-04-16T08:25:00.638Z,13.18
2023-04-16T08:27:27.383Z,13.29
2023-04-16T08:29:54.159Z,14.17
2023-04-16T08:32:20.976Z,16.47
2023-04-16T08:34:47.694Z,19.33
2023-04-16T08:37:14.469Z,21.97
2023-04-16T08:39:41.441Z,22.97
2023-04-16T08:42:18.862Z,21.00
2023-04-16T08:44:49.963Z,19.01
2023-04-16T08:47:16.809Z,18.85
2023-04-16T08:49:47.883Z,19.57
2023-04-16T08:52:22.409Z,20.96
2023-04-16T08:54:58.662Z,22.50
2023-04-16T08:57:35.657Z,21.86
2023-04-16T09:00:04.099Z,19.43
2023-04-16T09:02:31.645Z,18.05
2023-04-16T09:05:00.289Z,16.87
2023-04-16T09:07:29.372Z,16.62
2023-04-16T09:09:59.587Z,15.79
2023-04-16T09:12:26.732Z,14.97
2023-04-16T09:14:53.563Z,14.18
2023-04-16T09:17:26.516Z,13.94
2023-04-16T09:19:54.373Z,13.98
2023-04-16T09:22:21.422Z,14.54
2023-04-16T09:24:48.236Z,14.83
2023-04-16T09:27:14.882Z,15.15
2023-04-16T09:29:42.257Z,14.68
2023-04-16T09:32:10.703Z,15.88
2023-04-16T09:35:13.088Z,16.77
2023-04-16T09:37:39.802Z,17.03
2023-04-16T09:40:07.220Z,16.82
2023-04-16T09:42:37.133Z,16.77
2023-04-16T09:45:05.753Z,16.81
2023-04-16T09:47:41.541Z,16.26
2023-04-16T09:50:12.249Z,16.72
2023-04-16T09:52:39.504Z,16.63
2023-04-16T09:55:06.718Z,16.22
2023-04-16T09:57:33.451Z,15.76
2023-04-16T10:00:06.021Z,15.18
2023-04-16T10:02:34.732Z,15.42
2023-04-16T10:05:06.422Z,15.20
2023-04-16T10:07:34.842Z,14.53
2023-04-16T10:10:01.706Z,13.82
2023-04-16T10:12:29.854Z,13.54
2023-04-16T10:14:56.564Z,13.27
2023-04-16T10:17:24.367Z,12.77
2023-04-16T10:19:51.438Z,12.48
2023-04-16T10:22:18.073Z,12.11
2023-04-16T10:24:45.437Z,11.93
2023-04-16T10:27:12.375Z,11.60
2023-04-16T10:29:39.239Z,10.73
2023-04-16T10:32:07.029Z,10.37
2023-04-16T10:34:34.085Z,10.39
2023-04-16T10:37:00.854Z,10.28
2023-04-16T10:39:29.468Z,10.19
2023-04-16T10:42:10.737Z,10.03
2023-04-16T10:44:38.107Z,10.43
2023-04-16T10:47:12.029Z,10.39
2023-04-16T10:49:38.875Z,10.65
2023-04-16T10:52:12.277Z,10.89
2023-04-16T10:54:40.314Z,11.23
2023-04-16T10:57:15.067Z,11.68
2023-04-16T10:59:43.244Z,11.90
2023-04-16T11:02:18.172Z,12.45
2023-04-16T11:04:46.732Z,13.02
2023-04-16T11:07:19.519Z,13.22
2023-04-16T11:09:56.193Z,13.83
2023-04-16T11:12:38.388Z,13.95
2023-04-16T11:15:13.086Z,14.32
2023-04-16T11:17:51.727Z,14.76
2023-04-16T11:20:21.224Z,15.08
2023-04-16T11:22:49.559Z,15.37
2023-04-16T11:25:24.510Z,14.87
2023-04-16T11:27:52.021Z,15.88
2023-04-16T11:30:40.765Z,15.80
2023-04-16T11:33:11.973Z,14.79
2023-04-16T11:35:39.894Z,15.11
2023-04-16T11:38:07.472Z,15.78
2023-04-16T11:40:35.176Z,15.73
2023-04-16T11:43:16.333Z,15.73
2023-04-16T11:46:00.984Z,14.88
2023-04-16T11:48:53.590Z,14.41
2023-04-16T11:51:21.778Z,14.76
2023-04-16T11:53:56.389Z,14.62
2023-04-16T11:56:29.490Z,14.64
2023-04-16T11:59:13.757Z,14.39
2023-04-16T12:01:42.006Z,14.00
2023-04-16T12:04:09.202Z,14.28
2023-04-16T12:06:36.697Z,14.22
2023-04-16T12:09:25.913Z,14.07
2023-04-16T12:11:53.236Z,14.20
2023-04-16T12:14:20.074Z,14.79
2023-04-16T12:16:46.949Z,15.25
2023-04-16T12:19:14.446Z,15.54
2023-04-16T12:21:43.528Z,15.87
2023-04-16T12:24:15.534Z,15.74
2023-04-16T12:26:46.564Z,15.78
2023-04-16T12:29:23.200Z,15.21
2023-04-16T12:31:51.305Z,15.20
2023-04-16T12:34:19.321Z,14.97
2023-04-16T12:36:47.598Z,15.42
2023-04-16T12:39:15.894Z,15.51
2023-04-16T12:41:44.854Z,15.56
2023-04-16T12:44:16.685Z,15.62
2023-04-16T12:46:44.761Z,14.73
2023-04-16T12:49:12.202Z,14.81
2023-04-16T12:51:39.211Z,15.24
2023-04-16T12:54:10.329Z,15.91
2023-04-16T12:56:37.164Z,16.01
2023-04-16T12:59:03.896Z,16.20
2023-04-16T13:01:30.812Z,15.47
2023-04-16T13:03:57.875Z,14.81
2023-04-16T13:06:25.065Z,14.46
2023-04-16T13:08:51.784Z,14.30
2023-04-16T13:11:19.242Z,13.91
2023-04-16T13:13:46.018Z,14.03
2023-04-16T13:16:12.860Z,13.98
2023-04-16T13:18:40.279Z,14.01
2023-04-16T13:21:07.216Z,14.11
2023-04-16T13:23:35.221Z,14.09
2023-04-16T13:26:02.029Z,13.95
2023-04-16T13:28:28.701Z,13.32
2023-04-16T13:30:55.516Z,13.06
2023-04-16T13:33:23.490Z,13.40
2023-04-16T13:35:50.297Z,13.63
2023-04-16T13:38:17.579Z,13.47
2023-04-16T13:40:44.839Z,13.45
2023-04-16T13:43:11.801Z,13.53
2023-04-16T13:45:38.736Z,13.76
2023-04-16T13:48:05.905Z,13.96
2023-04-16T13:50:32.610Z,14.23
2023-04-16T13:52:59.385Z,14.21
2023-04-16T13:55:26.276Z,14.22
2023-04-16T13:57:53.434Z,14.10
2023-04-16T14:00:20.558Z,13.71
2023-04-16T14:02:48.812Z,13.63
2023-04-16T14:05:15.950Z,13.91
2023-04-16T14:07:42.644Z,13.67
2023-04-16T14:10:09.828Z,13.19
2023-04-16T14:12:37.282Z,13.19
2023-04-16T14:15:06.699Z,13.00
2023-04-16T14:17:33.568Z,12.91
2023-04-16T14:20:00.601Z,12.65
2023-04-16T14:22:27.315Z,12.50
2023-04-16T14:24:54.030Z,12.39
2023-04-16T14:27:20.871Z,12.20
2023-04-16T14:29:47.595Z,12.28
2023-04-16T14:32:14.746Z,12.36
2023-04-16T14:34:41.508Z,12.43
2023-04-16T14:37:08.613Z,12.42
2023-04-16T14:39:36.715Z,12.58
2023-04-16T14:42:03.609Z,12.51
2023-04-16T14:44:30.273Z,12.58
2023-04-16T14:46:57.021Z,12.36
2023-04-16T14:49:23.890Z,12.27
2023-04-16T14:51:52.361Z,12.47
2023-04-16T14:54:20.256Z,12.24
2023-04-16T14:56:47.528Z,12.39
2023-04-16T14:59:14.222Z,12.06
2023-04-16T15:01:41.597Z,12.31
2023-04-16T15:04:09.223Z,12.20
2023-04-16T15:06:36.616Z,12.29
2023-04-16T15:09:04.093Z,12.26
2023-04-16T15:11:30.802Z,12.02
2023-04-16T15:13:57.554Z,11.90
2023-04-16T15:16:24.496Z,11.89
2023-04-16T15:18:51.539Z,11.78
2023-04-16T15:21:18.295Z,11.57
2023-04-16T15:23:45.017Z,11.68
2023-04-16T15:26:12.095Z,11.75
2023-04-16T15:28:38.967Z,11.73
2023-04-16T15:31:05.801Z,11.77
2023-04-16T15:33:32.669Z,11.45
2023-04-16T15:35:59.380Z,11.57
2023-04-16T15:38:26.223Z,11.78
2023-04-16T15:40:56.870Z,11.76
2023-04-16T15:45:59.856Z,11.52
2023-04-16T15:48:26.620Z,11.37
2023-04-16T15:50:54.390Z,11.35
2023-04-16T15:53:21.320Z,11.30
2023-04-16T15:55:50.375Z,11.17
2023-04-16T15:58:17.615Z,11.11
2023-04-16T16:00:46.649Z,11.25
2023-04-16T16:03:13.475Z,11.29
2023-04-16T16:05:40.501Z,11.13
2023-04-16T16:08:07.320Z,11.14
2023-04-16T16:10:34.470Z,11.19
2023-04-16T16:13:05.426Z,10.98
2023-04-16T16:15:32.479Z,10.99
2023-04-16T16:17:59.197Z,10.88
2023-04-16T16:20:26.093Z,10.90
2023-04-16T16:22:53.701Z,10.77
2023-04-16T16:25:20.566Z,10.70
2023-04-16T16:27:47.390Z,10.70
2023-04-16T16:30:14.591Z,10.58
2023-04-16T16:32:43.181Z,10.45
2023-04-16T16:35:11.208Z,10.42
2023-04-16T16:37:38.649Z,10.41
2023-04-16T16:40:05.928Z,10.21
2023-04-16T16:42:32.647Z,9.98
2023-04-16T16:44:59.768Z,10.13
2023-04-16T16:47:26.536Z,10.07
2023-04-16T16:49:54.758Z,10.10
2023-04-16T16:52:27.735Z,9.99
2023-04-16T16:54:54.942Z,10.00
2023-04-16T16:57:21.767Z,10.04
2023-04-16T16:59:48.679Z,9.79
2023-04-16T17:02:17.018Z,9.93
2023-04-16T17:04:44.078Z,9.68
2023-04-16T17:07:11.097Z,9.74
2023-04-16T17:09:38.903Z,9.65
2023-04-16T17:12:06.432Z,9.69
2023-04-16T17:14:33.774Z,9.64
2023-04-16T17:17:00.683Z,9.17
2023-04-16T17:19:27.613Z,9.09
2023-04-16T17:21:54.458Z,9.08
2023-04-16T17:24:21.174Z,8.96
2023-04-16T17:26:47.863Z,8.88
2023-04-16T17:29:14.709Z,8.74
2023-04-16T17:31:41.502Z,8.55
2023-04-16T17:34:08.273Z,8.17
2023-04-16T17:36:35.011Z,8.44
2023-04-16T17:39:01.722Z,8.34
2023-04-16T17:41:28.422Z,8.27
2023-04-16T17:43:55.176Z,8.06
2023-04-16T17:46:21.923Z,8.20
2023-04-16T17:48:49.022Z,7.91
2023-04-16T17:51:16.657Z,7.76
2023-04-16T17:53:43.652Z,7.81
2023-04-16T17:56:11.682Z,7.85
2023-04-16T17:58:38.410Z,7.49
2023-04-16T18:01:06.182Z,7.66
2023-04-16T18:03:33.454Z,7.50
2023-04-16T18:06:00.788Z,7.40
2023-04-16T18:08:27.813Z,7.17
2023-04-16T18:10:55.638Z,7.22
2023-04-16T18:13:23.866Z,7.28
2023-04-16T18:15:50.633Z,7.38
2023-04-16T18:18:17.460Z,7.19
2023-04-16T18:20:44.165Z,6.84
2023-04-16T18:23:10.899Z,6.70
2023-04-16T18:25:38.159Z,6.65
2023-04-16T18:28:06.764Z,6.48
2023-04-16T18:30:34.494Z,6.65
2023-04-16T18:33:30.519Z,6.52
2023-04-16T18:35:48.320Z,6.74
2023-04-16T18:38:15.082Z,6.73
2023-04-16T18:40:42.431Z,6.65
2023-04-16T18:43:09.137Z,6.46
2023-04-16T18:45:36.518Z,6.68
2023-04-16T18:48:04.254Z,6.70
2023-04-16T18:50:31.320Z,6.70
2023-04-16T18:52:58.030Z,6.46
2023-04-16T18:55:24.777Z,6.44
2023-04-16T18:57:51.466Z,6.21
2023-04-16T19:00:18.540Z,6.09
2023-04-16T19:02:45.478Z,6.07
2023-04-16T19:05:12.612Z,6.09
2023-04-16T19:07:39.935Z,6.00
2023-04-16T19:10:07.292Z,6.03
2023-04-16T19:12:34.210Z,6.01
2023-04-16T19:15:00.945Z,6.18
2023-04-16T19:17:27.738Z,5.93
2023-04-16T19:19:54.653Z,5.42
2023-04-16T19:22:21.619Z,5.37
2023-04-16T19:24:48.353Z,5.26
2023-04-16T19:27:15.098Z,5.37
2023-04-16T19:29:44.089Z,5.60
2023-04-16T19:32:21.233Z,5.56
2023-04-16T19:34:48.035Z,5.25
2023-04-16T19:37:14.780Z,5.48
2023-04-16T19:39:41.505Z,5.14
2023-04-16T19:42:08.136Z,5.09
2023-04-16T19:44:36.069Z,5.13
2023-04-16T19:47:03.310Z,4.96
2023-04-16T19:49:30.322Z,4.90
2023-04-16T19:51:57.781Z,4.88
2023-04-16T19:54:24.445Z,5.05
2023-04-16T19:56:53.967Z,5.29
2023-04-16T19:59:20.825Z,5.04
2023-04-16T20:01:47.550Z,5.07
2023-04-16T20:04:14.448Z,5.29
2023-04-16T20:06:41.295Z,5.45
2023-04-16T20:09:08.024Z,5.11
2023-04-16T20:11:36.613Z,5.25
2023-04-16T20:14:03.493Z,5.33
2023-04-16T20:16:31.840Z,5.21
2023-04-16T20:19:03.657Z,4.69
2023-04-16T20:21:34.192Z,4.67
2023-04-16T20:24:00.928Z,4.62
2023-04-16T20:26:28.526Z,4.61
2023-04-16T20:28:55.194Z,5.06
2023-04-16T20:31:21.933Z,5.09
2023-04-16T20:33:48.652Z,4.90
2023-04-16T20:36:15.547Z,4.99
2023-04-16T20:38:53.989Z,4.99
2023-04-16T20:41:21.546Z,4.67
2023-04-16T20:43:50.273Z,4.62
2023-04-16T20:46:17.761Z,4.81
2023-04-16T20:48:45.125Z,4.95
2023-04-16T20:51:11.897Z,4.99
2023-04-16T20:53:38.577Z,5.08
2023-04-16T20:56:06.869Z,5.00
2023-04-16T20:58:33.889Z,4.68
2023-04-16T21:01:00.792Z,4.85
2023-04-16T21:03:27.946Z,4.94
2023-04-16T21:05:55.584Z,4.99
2023-04-16T21:08:23.417Z,4.64
2023-04-16T21:10:50.990Z,4.36
2023-04-16T21:13:18.943Z,4.58
2023-04-16T21:15:46.280Z,4.27
2023-04-16T21:18:13.067Z,4.86
2023-04-16T21:20:40.171Z,4.91
2023-04-16T21:23:06.931Z,4.95
2023-04-16T21:25:33.683Z,4.67
2023-04-16T21:28:00.617Z,4.69
2023-04-16T21:30:27.365Z,4.65
2023-04-16T21:32:54.158Z,4.56
2023-04-16T21:35:20.841Z,4.56
2023-04-16T21:37:48.990Z,4.51
2023-04-16T21:40:15.921Z,4.43
2023-04-16T21:42:42.651Z,4.25
2023-04-16T21:45:10.526Z,4.35
2023-04-16T21:47:38.137Z,4.22
2023-04-16T21:50:05.938Z,4.29
2023-04-16T21:52:33.067Z,4.09
2023-04-16T21:55:00.507Z,4.13
2023-04-16T21:57:27.213Z,4.01
2023-04-16T21:59:53.929Z,4.09
2023-04-16T22:02:21.447Z,4.05
2023-04-16T22:04:48.733Z,4.06
2023-04-16T22:07:16.946Z,3.76
2023-04-16T22:09:43.929Z,3.95
2023-04-16T22:12:10.719Z,3.84
2023-04-16T22:14:43.962Z,3.90
2023-04-16T22:17:13.131Z,3.74
2023-04-16T22:19:39.915Z,3.88
2023-04-16T22:22:06.587Z,3.73
2023-04-16T22:24:33.321Z,3.80
2023-04-16T22:27:00.063Z,3.89
2023-04-16T22:29:26.742Z,3.69
2023-04-16T22:31:53.621Z,3.47
2023-04-16T22:34:20.319Z,3.40
2023-04-16T22:36:47.592Z,3.53
2023-04-16T22:39:14.743Z,3.51
2023-04-16T22:41:45.575Z,3.57
2023-04-16T22:44:12.254Z,3.66
2023-04-16T22:46:39.062Z,3.71
2023-04-16T22:49:05.742Z,3.55
2023-04-16T22:51:32.464Z,3.31
2023-04-16T22:54:04.882Z,3.19
2023-04-16T22:56:31.536Z,3.37
2023-04-16T22:58:58.237Z,3.36
2023-04-16T23:01:25.136Z,3.29
2023-04-16T23:03:52.670Z,3.30
2023-04-16T23:06:19.472Z,3.32
2023-04-16T23:08:46.568Z,3.37
2023-04-16T23:11:13.253Z,3.41
2023-04-16T23:13:39.865Z,3.40
2023-04-16T23:16:07.079Z,3.69
2023-04-16T23:18:33.782Z,3.76
2023-04-16T23:21:00.546Z,3.83
2023-04-16T23:23:27.285Z,3.64
2023-04-16T23:25:54.390Z,3.44
2023-04-16T23:28:21.909Z,3.20
2023-04-16T23:30:52.893Z,3.34
2023-04-16T23:33:19.798Z,3.20
2023-04-16T23:35:47.547Z,3.18
2023-04-16T23:38:14.354Z,3.28
2023-04-16T23:40:41.592Z,3.31
2023-04-16T23:43:08.349Z,3.34
2023-04-16T23:45:35.077Z,3.25
2023-04-16T23:48:01.884Z,3.09
2023-04-16T23:50:28.559Z,2.87
2023-04-16T23:52:55.603Z,2.77
2023-04-16T23:55:22.432Z,2.73
2023-04-16T23:57:49.190Z,2.86
